createdAt,value
2017-12-29T00:00:11.017Z,998.49
2017-12-29T00:00:37.122Z,998.46
2017-12-29T00:01:03.222Z,998.48
2017-12-29T00:01:29.324Z,998.54
2017-12-29T00:01:55.427Z,998.49
2017-12-29T00:02:21.524Z,998.47
2017-12-29T00:02:47.627Z,998.46
2017-12-29T00:03:13.723Z,998.47
2017-12-29T00:03:39.831Z,998.5
2017-12-29T00:04:05.924Z,998.48
2017-12-29T00:04:32.028Z,998.46
2017-12-29T00:04:58.154Z,998.52
2017-12-29T00:05:24.226Z,998.5
2017-12-29T00:05:50.330Z,998.55
2017-12-29T00:06:16.444Z,998.54
2017-12-29T00:06:42.549Z,998.56
2017-12-29T00:07:08.649Z,998.48
2017-12-29T00:07:34.746Z,998.41
2017-12-29T00:08:00.849Z,998.51
2017-12-29T00:08:26.961Z,998.58
2017-12-29T00:08:53.063Z,998.5
2017-12-29T00:09:19.189Z,998.52
2017-12-29T00:09:45.289Z,998.52
2017-12-29T00:10:11.388Z,998.56
2017-12-29T00:10:37.485Z,998.55
2017-12-29T00:11:03.588Z,998.6
2017-12-29T00:11:29.686Z,998.59
2017-12-29T00:11:55.786Z,998.59
2017-12-29T00:12:21.913Z,998.62
2017-12-29T00:12:48.006Z,998.64
2017-12-29T00:13:14.110Z,998.63
2017-12-29T00:13:40.225Z,998.62
2017-12-29T00:14:06.328Z,998.67
2017-12-29T00:14:32.432Z,998.65
2017-12-29T00:14:58.526Z,998.72
2017-12-29T00:15:24.633Z,998.73
2017-12-29T00:15:50.734Z,998.72
2017-12-29T00:16:16.851Z,998.69
2017-12-29T00:16:42.945Z,998.6
2017-12-29T00:17:09.040Z,998.69
2017-12-29T00:17:35.144Z,998.74
2017-12-29T00:18:01.239Z,998.7
2017-12-29T00:18:27.343Z,998.69
2017-12-29T00:18:53.449Z,998.68
2017-12-29T00:19:19.544Z,998.71
2017-12-29T00:19:45.655Z,998.72
2017-12-29T00:20:11.775Z,998.75
2017-12-29T00:20:37.872Z,998.75
2017-12-29T00:21:03.976Z,998.69
2017-12-29T00:21:30.074Z,998.75
2017-12-29T00:21:56.178Z,998.74
2017-12-29T00:22:22.278Z,998.74
2017-12-29T00:22:48.369Z,998.73
2017-12-29T00:23:14.473Z,998.75
2017-12-29T00:23:40.574Z,998.75
2017-12-29T00:24:06.679Z,998.68
2017-12-29T00:24:32.777Z,998.72
2017-12-29T00:24:58.897Z,998.7
2017-12-29T00:25:24.996Z,998.76
2017-12-29T00:25:51.097Z,998.79
2017-12-29T00:26:17.199Z,998.73
2017-12-29T00:26:43.297Z,998.8
2017-12-29T00:27:09.417Z,998.71
2017-12-29T00:27:35.516Z,998.71
2017-12-29T00:28:01.614Z,998.74
2017-12-29T00:28:27.721Z,998.74
2017-12-29T00:28:53.822Z,998.7
2017-12-29T00:29:19.919Z,998.73
2017-12-29T00:29:46.020Z,998.76
2017-12-29T00:30:12.126Z,998.76
2017-12-29T00:30:38.237Z,998.76
2017-12-29T00:31:04.340Z,998.78
2017-12-29T00:31:30.438Z,998.8
2017-12-29T00:31:56.544Z,998.76
2017-12-29T00:32:22.646Z,998.75
2017-12-29T00:32:48.745Z,998.78
2017-12-29T00:33:14.849Z,998.81
2017-12-29T00:33:40.947Z,998.79
2017-12-29T00:34:07.043Z,998.8
2017-12-29T00:34:33.148Z,998.84
2017-12-29T00:34:59.245Z,998.79
2017-12-29T00:35:25.349Z,998.81
2017-12-29T00:35:51.451Z,998.82
2017-12-29T00:36:17.554Z,998.79
2017-12-29T00:36:43.650Z,998.8
2017-12-29T00:37:09.755Z,998.79
2017-12-29T00:37:35.858Z,998.82
2017-12-29T00:38:01.982Z,998.78
2017-12-29T00:38:28.078Z,998.81
2017-12-29T00:38:54.179Z,998.77
2017-12-29T00:39:20.282Z,998.83
2017-12-29T00:39:46.381Z,998.79
2017-12-29T00:40:12.484Z,998.87
2017-12-29T00:40:38.588Z,998.84
2017-12-29T00:41:04.691Z,998.88
2017-12-29T00:41:30.820Z,998.83
2017-12-29T00:41:56.918Z,998.88
2017-12-29T00:42:23.016Z,998.87
2017-12-29T00:42:49.120Z,998.87
2017-12-29T00:43:15.214Z,998.83
2017-12-29T00:43:41.324Z,998.86
2017-12-29T00:44:07.424Z,998.89
2017-12-29T00:44:33.517Z,998.91
2017-12-29T00:44:59.619Z,998.87
2017-12-29T00:45:25.724Z,998.91
2017-12-29T00:45:51.820Z,998.94
2017-12-29T00:46:17.923Z,998.9
2017-12-29T00:46:44.022Z,998.92
2017-12-29T00:47:10.122Z,998.89
2017-12-29T00:47:36.218Z,998.92
2017-12-29T00:48:02.316Z,998.9
2017-12-29T00:48:28.437Z,998.86
2017-12-29T00:48:54.535Z,998.93
2017-12-29T00:49:20.636Z,998.91
2017-12-29T00:49:46.739Z,998.94
2017-12-29T00:50:12.839Z,998.94
2017-12-29T00:50:38.957Z,998.96
2017-12-29T00:51:05.054Z,998.9
2017-12-29T00:51:31.160Z,998.9
2017-12-29T00:51:57.255Z,998.91
2017-12-29T00:52:23.353Z,998.96
2017-12-29T00:52:49.456Z,998.97
2017-12-29T00:53:15.555Z,999.01
2017-12-29T00:53:41.659Z,998.96
2017-12-29T00:54:07.755Z,999.01
2017-12-29T00:54:33.860Z,998.97
2017-12-29T00:54:59.963Z,998.97
2017-12-29T00:55:26.058Z,998.98
2017-12-29T00:55:52.155Z,999
2017-12-29T00:56:18.259Z,998.99
2017-12-29T00:56:44.360Z,999.03
2017-12-29T00:57:10.455Z,999.02
2017-12-29T00:57:36.554Z,998.97
2017-12-29T00:58:02.655Z,998.99
2017-12-29T00:58:28.758Z,999.04
2017-12-29T00:58:54.855Z,999.01
2017-12-29T00:59:20.954Z,999.03
2017-12-29T00:59:47.057Z,999.06
2017-12-29T01:00:13.158Z,999.07
2017-12-29T01:00:39.259Z,999.09
2017-12-29T01:01:05.362Z,999.11
2017-12-29T01:01:31.455Z,999.09
2017-12-29T01:01:57.556Z,999.06
2017-12-29T01:02:23.663Z,999.14
2017-12-29T01:02:49.761Z,999.01
2017-12-29T01:03:15.867Z,999.06
2017-12-29T01:03:41.968Z,999.14
2017-12-29T01:04:08.062Z,999.09
2017-12-29T01:04:34.162Z,999.12
2017-12-29T01:05:00.267Z,999.09
2017-12-29T01:05:26.364Z,999.14
2017-12-29T01:05:52.463Z,999.09
2017-12-29T01:06:18.567Z,999.08
2017-12-29T01:06:44.662Z,999.14
2017-12-29T01:07:10.764Z,999.14
2017-12-29T01:07:36.866Z,999.11
2017-12-29T01:08:02.969Z,999.14
2017-12-29T01:08:29.068Z,999.18
2017-12-29T01:08:55.167Z,999.1
2017-12-29T01:09:21.264Z,999.17
2017-12-29T01:09:47.370Z,999.17
2017-12-29T01:10:13.469Z,999.14
2017-12-29T01:10:39.573Z,999.12
2017-12-29T01:11:05.669Z,999.12
2017-12-29T01:11:31.768Z,999.15
2017-12-29T01:11:57.870Z,999.18
2017-12-29T01:12:24.003Z,999.18
2017-12-29T01:12:50.092Z,999.12
2017-12-29T01:13:16.190Z,999.19
2017-12-29T01:13:42.296Z,999.17
2017-12-29T01:14:08.391Z,999.1
2017-12-29T01:14:34.494Z,999.14
2017-12-29T01:15:00.592Z,999.17
2017-12-29T01:15:26.694Z,999.15
2017-12-29T01:15:52.798Z,999.14
2017-12-29T01:16:18.891Z,999.19
2017-12-29T01:16:44.995Z,999.18
2017-12-29T01:17:11.093Z,999.14
2017-12-29T01:17:37.215Z,999.15
2017-12-29T01:18:03.313Z,999.15
2017-12-29T01:18:29.423Z,999.13
2017-12-29T01:18:55.528Z,999.17
2017-12-29T01:19:21.627Z,999.15
2017-12-29T01:19:47.725Z,999.16
2017-12-29T01:20:13.829Z,999.2
2017-12-29T01:20:39.946Z,999.21
2017-12-29T01:21:06.042Z,999.16
2017-12-29T01:21:32.145Z,999.18
2017-12-29T01:21:58.246Z,999.19
2017-12-29T01:22:24.346Z,999.18
2017-12-29T01:22:50.449Z,999.21
2017-12-29T01:23:16.544Z,999.2
2017-12-29T01:23:42.649Z,999.19
2017-12-29T01:24:08.753Z,999.19
2017-12-29T01:24:34.850Z,999.2
2017-12-29T01:25:00.948Z,999.21
2017-12-29T01:25:27.046Z,999.24
2017-12-29T01:25:53.147Z,999.19
2017-12-29T01:26:19.245Z,999.24
2017-12-29T01:26:45.348Z,999.22
2017-12-29T01:27:11.451Z,999.2
2017-12-29T01:27:37.549Z,999.22
2017-12-29T01:28:03.654Z,999.19
2017-12-29T01:28:29.755Z,999.21
2017-12-29T01:28:55.860Z,999.24
2017-12-29T01:29:21.952Z,999.24
2017-12-29T01:29:48.053Z,999.21
2017-12-29T01:30:14.160Z,999.29
2017-12-29T01:30:40.254Z,999.21
2017-12-29T01:31:06.364Z,999.26
2017-12-29T01:31:32.458Z,999.23
2017-12-29T01:31:58.567Z,999.23
2017-12-29T01:32:24.658Z,999.21
2017-12-29T01:32:50.761Z,999.28
2017-12-29T01:33:16.873Z,999.23
2017-12-29T01:33:42.975Z,999.26
2017-12-29T01:34:09.078Z,999.27
2017-12-29T01:34:35.172Z,999.22
2017-12-29T01:35:01.278Z,999.26
2017-12-29T01:35:27.374Z,999.27
2017-12-29T01:35:53.484Z,999.29
2017-12-29T01:36:19.586Z,999.26
2017-12-29T01:36:45.681Z,999.26
2017-12-29T01:37:11.788Z,999.26
2017-12-29T01:37:37.882Z,999.25
2017-12-29T01:38:03.984Z,999.27
2017-12-29T01:38:30.084Z,999.3
2017-12-29T01:38:56.189Z,999.33
2017-12-29T01:39:22.278Z,999.28
2017-12-29T01:39:48.384Z,999.31
2017-12-29T01:40:14.527Z,999.31
2017-12-29T01:40:40.618Z,999.32
2017-12-29T01:41:06.721Z,999.31
2017-12-29T01:41:32.822Z,999.37
2017-12-29T01:41:58.945Z,999.41
2017-12-29T01:42:25.090Z,999.38
2017-12-29T01:42:51.204Z,999.43
2017-12-29T01:43:17.328Z,999.38
2017-12-29T01:43:43.434Z,999.43
2017-12-29T01:44:09.545Z,999.38
2017-12-29T01:44:35.660Z,999.31
2017-12-29T01:45:01.773Z,999.34
2017-12-29T01:45:27.871Z,999.36
2017-12-29T01:45:53.973Z,999.35
2017-12-29T01:46:20.074Z,999.32
2017-12-29T01:46:46.176Z,999.28
2017-12-29T01:47:12.279Z,999.32
2017-12-29T01:47:38.376Z,999.24
2017-12-29T01:48:04.474Z,999.25
2017-12-29T01:48:30.577Z,999.28
2017-12-29T01:48:56.678Z,999.26
2017-12-29T01:49:22.774Z,999.27
2017-12-29T01:49:48.878Z,999.27
2017-12-29T01:50:14.976Z,999.3
2017-12-29T01:50:41.076Z,999.23
2017-12-29T01:51:07.180Z,999.3
2017-12-29T01:51:33.280Z,999.3
2017-12-29T01:51:59.382Z,999.26
2017-12-29T01:52:25.484Z,999.32
2017-12-29T01:52:51.586Z,999.31
2017-12-29T01:53:17.688Z,999.31
2017-12-29T01:53:43.786Z,999.24
2017-12-29T01:54:09.886Z,999.27
2017-12-29T01:54:35.980Z,999.33
2017-12-29T01:55:02.087Z,999.23
2017-12-29T01:55:28.182Z,999.26
2017-12-29T01:55:54.286Z,999.27
2017-12-29T01:56:20.400Z,999.2
2017-12-29T01:56:46.501Z,999.2
2017-12-29T01:57:12.602Z,999.23
2017-12-29T01:57:38.697Z,999.24
2017-12-29T01:58:04.803Z,999.25
2017-12-29T01:58:30.898Z,999.17
2017-12-29T01:58:56.996Z,999.19
2017-12-29T01:59:23.116Z,999.23
2017-12-29T01:59:49.214Z,999.2
2017-12-29T02:00:15.326Z,999.17
2017-12-29T02:00:41.439Z,999.14
2017-12-29T02:01:07.542Z,999.2
2017-12-29T02:01:33.641Z,999.1
2017-12-29T02:01:59.737Z,999.09
2017-12-29T02:02:25.839Z,999.13
2017-12-29T02:02:51.956Z,999.18
2017-12-29T02:03:18.051Z,999.2
2017-12-29T02:03:44.148Z,999.19
2017-12-29T02:04:10.254Z,999.23
2017-12-29T02:04:36.378Z,999.2
2017-12-29T02:05:02.473Z,999.23
2017-12-29T02:05:28.574Z,999.12
2017-12-29T02:05:54.679Z,999.22
2017-12-29T02:06:20.774Z,999.2
2017-12-29T02:06:46.877Z,999.2
2017-12-29T02:07:12.996Z,999.15
2017-12-29T02:07:39.092Z,999.26
2017-12-29T02:08:05.190Z,999.23
2017-12-29T02:08:31.288Z,999.19
2017-12-29T02:08:57.392Z,999.23
2017-12-29T02:09:23.487Z,999.22
2017-12-29T02:09:49.593Z,999.25
2017-12-29T02:10:15.690Z,999.22
2017-12-29T02:10:41.786Z,999.2
2017-12-29T02:11:07.889Z,999.18
2017-12-29T02:11:33.994Z,999.19
2017-12-29T02:12:00.090Z,999.24
2017-12-29T02:12:26.186Z,999.19
2017-12-29T02:12:52.288Z,999.16
2017-12-29T02:13:18.390Z,999.18
2017-12-29T02:13:44.485Z,999.19
2017-12-29T02:14:10.607Z,999.2
2017-12-29T02:14:36.702Z,999.22
2017-12-29T02:15:02.801Z,999.21
2017-12-29T02:15:28.906Z,999.25
2017-12-29T02:15:55.001Z,999.21
2017-12-29T02:16:21.104Z,999.22
2017-12-29T02:16:47.206Z,999.25
2017-12-29T02:17:13.304Z,999.24
2017-12-29T02:17:39.407Z,999.23
2017-12-29T02:18:05.504Z,999.14
2017-12-29T02:18:31.604Z,999.2
2017-12-29T02:18:57.702Z,999.22
2017-12-29T02:19:23.807Z,999.24
2017-12-29T02:19:49.904Z,999.26
2017-12-29T02:20:16.009Z,999.25
2017-12-29T02:20:42.107Z,999.22
2017-12-29T02:21:08.207Z,999.29
2017-12-29T02:21:34.311Z,999.26
2017-12-29T02:22:00.413Z,999.28
2017-12-29T02:22:26.508Z,999.25
2017-12-29T02:22:52.606Z,999.25
2017-12-29T02:23:18.708Z,999.27
2017-12-29T02:23:44.809Z,999.31
2017-12-29T02:24:10.904Z,999.26
2017-12-29T02:24:37.009Z,999.29
2017-12-29T02:25:03.119Z,999.28
2017-12-29T02:25:29.220Z,999.26
2017-12-29T02:25:55.323Z,999.28
2017-12-29T02:26:21.420Z,999.28
2017-12-29T02:26:47.524Z,999.29
2017-12-29T02:27:13.624Z,999.29
2017-12-29T02:27:39.717Z,999.34
2017-12-29T02:28:05.817Z,999.36
2017-12-29T02:28:31.922Z,999.37
2017-12-29T02:28:58.019Z,999.36
2017-12-29T02:29:24.124Z,999.33
2017-12-29T02:29:50.213Z,999.34
2017-12-29T02:30:16.322Z,999.32
2017-12-29T02:30:42.421Z,999.34
2017-12-29T02:31:08.515Z,999.37
2017-12-29T02:31:34.621Z,999.38
2017-12-29T02:32:00.722Z,999.33
2017-12-29T02:32:26.820Z,999.39
2017-12-29T02:32:52.935Z,999.36
2017-12-29T02:33:19.039Z,999.38
2017-12-29T02:33:45.133Z,999.4
2017-12-29T02:34:11.238Z,999.39
2017-12-29T02:34:37.341Z,999.41
2017-12-29T02:35:03.441Z,999.36
2017-12-29T02:35:29.545Z,999.4
2017-12-29T02:35:55.648Z,999.39
2017-12-29T02:36:21.743Z,999.39
2017-12-29T02:36:47.843Z,999.35
2017-12-29T02:37:13.942Z,999.4
2017-12-29T02:37:40.036Z,999.39
2017-12-29T02:38:06.141Z,999.41
2017-12-29T02:38:32.250Z,999.41
2017-12-29T02:38:58.348Z,999.39
2017-12-29T02:39:24.446Z,999.38
2017-12-29T02:39:50.549Z,999.38
2017-12-29T02:40:16.665Z,999.45
2017-12-29T02:40:42.771Z,999.34
2017-12-29T02:41:08.873Z,999.43
2017-12-29T02:41:34.969Z,999.35
2017-12-29T02:42:01.068Z,999.31
2017-12-29T02:42:27.170Z,999.39
2017-12-29T02:42:53.280Z,999.43
2017-12-29T02:43:19.370Z,999.45
2017-12-29T02:43:45.471Z,999.41
2017-12-29T02:44:11.587Z,999.43
2017-12-29T02:44:37.689Z,999.4
2017-12-29T02:45:03.783Z,999.41
2017-12-29T02:45:29.890Z,999.4
2017-12-29T02:45:55.983Z,999.42
2017-12-29T02:46:22.081Z,999.38
2017-12-29T02:46:48.183Z,999.44
2017-12-29T02:47:14.282Z,999.4
2017-12-29T02:47:40.388Z,999.44
2017-12-29T02:48:06.483Z,999.44
2017-12-29T02:48:32.586Z,999.38
2017-12-29T02:48:58.682Z,999.41
2017-12-29T02:49:24.786Z,999.39
2017-12-29T02:49:50.887Z,999.41
2017-12-29T02:50:16.980Z,999.43
2017-12-29T02:50:43.080Z,999.38
2017-12-29T02:51:09.174Z,999.38
2017-12-29T02:51:35.272Z,999.4
2017-12-29T02:52:01.369Z,999.44
2017-12-29T02:52:27.474Z,999.38
2017-12-29T02:52:53.570Z,999.43
2017-12-29T02:53:19.670Z,999.45
2017-12-29T02:53:45.771Z,999.41
2017-12-29T02:54:11.873Z,999.41
2017-12-29T02:54:37.970Z,999.39
2017-12-29T02:55:04.076Z,999.39
2017-12-29T02:55:30.173Z,999.4
2017-12-29T02:55:56.277Z,999.37
2017-12-29T02:56:22.379Z,999.4
2017-12-29T02:56:48.478Z,999.43
2017-12-29T02:57:14.596Z,999.39
2017-12-29T02:57:40.694Z,999.4
2017-12-29T02:58:06.788Z,999.38
2017-12-29T02:58:32.887Z,999.38
2017-12-29T02:58:58.988Z,999.38
2017-12-29T02:59:25.088Z,999.34
2017-12-29T02:59:51.185Z,999.36
2017-12-29T03:00:17.285Z,999.38
2017-12-29T03:00:43.403Z,999.38
2017-12-29T03:01:09.509Z,999.47
2017-12-29T03:01:35.603Z,999.43
2017-12-29T03:02:01.710Z,999.47
2017-12-29T03:02:27.807Z,999.43
2017-12-29T03:02:53.908Z,999.4
2017-12-29T03:03:20.004Z,999.48
2017-12-29T03:03:46.124Z,999.44
2017-12-29T03:04:12.218Z,999.43
2017-12-29T03:04:38.316Z,999.43
2017-12-29T03:05:04.425Z,999.46
2017-12-29T03:05:30.526Z,999.48
2017-12-29T03:05:56.625Z,999.43
2017-12-29T03:06:22.725Z,999.33
2017-12-29T03:06:48.830Z,999.4
2017-12-29T03:07:14.933Z,999.42
2017-12-29T03:07:41.041Z,999.37
2017-12-29T03:08:07.142Z,999.4
2017-12-29T03:08:33.243Z,999.41
2017-12-29T03:08:59.345Z,999.4
2017-12-29T03:09:25.459Z,999.44
2017-12-29T03:09:51.578Z,999.46
2017-12-29T03:10:17.677Z,999.46
2017-12-29T03:10:43.773Z,999.49
2017-12-29T03:11:09.877Z,999.38
2017-12-29T03:11:35.972Z,999.48
2017-12-29T03:12:02.075Z,999.42
2017-12-29T03:12:28.176Z,999.43
2017-12-29T03:12:54.291Z,999.43
2017-12-29T03:13:20.412Z,999.48
2017-12-29T03:13:46.505Z,999.44
2017-12-29T03:14:12.608Z,999.48
2017-12-29T03:14:38.703Z,999.45
2017-12-29T03:15:04.798Z,999.41
2017-12-29T03:15:30.908Z,999.43
2017-12-29T03:15:57.020Z,999.47
2017-12-29T03:16:23.123Z,999.37
2017-12-29T03:16:49.228Z,999.4
2017-12-29T03:17:15.326Z,999.47
2017-12-29T03:17:41.424Z,999.45
2017-12-29T03:18:07.520Z,999.5
2017-12-29T03:18:33.625Z,999.43
2017-12-29T03:18:59.719Z,999.46
2017-12-29T03:19:25.820Z,999.48
2017-12-29T03:19:51.948Z,999.47
2017-12-29T03:20:18.053Z,999.48
2017-12-29T03:20:44.155Z,999.5
2017-12-29T03:21:10.249Z,999.51
2017-12-29T03:21:36.371Z,999.51
2017-12-29T03:22:02.470Z,999.5
2017-12-29T03:22:28.569Z,999.48
2017-12-29T03:22:54.664Z,999.47
2017-12-29T03:23:20.769Z,999.5
2017-12-29T03:23:46.871Z,999.52
2017-12-29T03:24:12.970Z,999.5
2017-12-29T03:24:39.066Z,999.46
2017-12-29T03:25:05.188Z,999.49
2017-12-29T03:25:31.300Z,999.48
2017-12-29T03:25:57.405Z,999.49
2017-12-29T03:26:23.505Z,999.5
2017-12-29T03:26:49.602Z,999.43
2017-12-29T03:27:15.699Z,999.55
2017-12-29T03:27:41.823Z,999.55
2017-12-29T03:28:07.923Z,999.48
2017-12-29T03:28:34.018Z,999.51
2017-12-29T03:29:00.122Z,999.62
2017-12-29T03:29:26.218Z,999.58
2017-12-29T03:29:52.319Z,999.52
2017-12-29T03:30:18.419Z,999.56
2017-12-29T03:30:44.523Z,999.52
2017-12-29T03:31:10.637Z,999.53
2017-12-29T03:31:36.733Z,999.59
2017-12-29T03:32:02.838Z,999.55
2017-12-29T03:32:28.930Z,999.59
2017-12-29T03:32:55.032Z,999.5
2017-12-29T03:33:21.127Z,999.48
2017-12-29T03:33:47.226Z,999.52
2017-12-29T03:34:13.329Z,999.48
2017-12-29T03:34:39.426Z,999.52
2017-12-29T03:35:05.522Z,999.46
2017-12-29T03:35:31.625Z,999.44
2017-12-29T03:35:57.719Z,999.49
2017-12-29T03:36:23.816Z,999.46
2017-12-29T03:36:49.911Z,999.54
2017-12-29T03:37:16.012Z,999.51
2017-12-29T03:37:42.116Z,999.47
2017-12-29T03:38:08.214Z,999.52
2017-12-29T03:38:34.313Z,999.4
2017-12-29T03:39:00.415Z,999.55
2017-12-29T03:39:26.520Z,999.5
2017-12-29T03:39:52.614Z,999.5
2017-12-29T03:40:18.720Z,999.53
2017-12-29T03:40:44.825Z,999.51
2017-12-29T03:41:10.921Z,999.5
2017-12-29T03:41:37.031Z,999.5
2017-12-29T03:42:03.125Z,999.5
2017-12-29T03:42:29.232Z,999.5
2017-12-29T03:42:55.331Z,999.49
2017-12-29T03:43:21.424Z,999.51
2017-12-29T03:43:47.524Z,999.38
2017-12-29T03:44:13.624Z,999.47
2017-12-29T03:44:39.720Z,999.41
2017-12-29T03:45:05.823Z,999.49
2017-12-29T03:45:31.921Z,999.42
2017-12-29T03:45:58.022Z,999.41
2017-12-29T03:46:24.136Z,999.39
2017-12-29T03:46:50.243Z,999.44
2017-12-29T03:47:16.343Z,999.37
2017-12-29T03:47:42.458Z,999.38
2017-12-29T03:48:08.542Z,999.41
2017-12-29T03:48:34.655Z,999.4
2017-12-29T03:49:00.749Z,999.41
2017-12-29T03:49:26.867Z,999.4
2017-12-29T03:49:52.966Z,999.4
2017-12-29T03:50:19.067Z,999.33
2017-12-29T03:50:45.170Z,999.37
2017-12-29T03:51:11.269Z,999.39
2017-12-29T03:51:37.362Z,999.29
2017-12-29T03:52:03.465Z,999.34
2017-12-29T03:52:29.588Z,999.37
2017-12-29T03:52:55.682Z,999.36
2017-12-29T03:53:21.777Z,999.36
2017-12-29T03:53:47.898Z,999.39
2017-12-29T03:54:14.000Z,999.37
2017-12-29T03:54:40.098Z,999.4
2017-12-29T03:55:06.197Z,999.41
2017-12-29T03:55:32.299Z,999.41
2017-12-29T03:55:58.395Z,999.37
2017-12-29T03:56:24.499Z,999.36
2017-12-29T03:56:50.596Z,999.35
2017-12-29T03:57:16.700Z,999.41
2017-12-29T03:57:42.804Z,999.28
2017-12-29T03:58:08.904Z,999.32
2017-12-29T03:58:35.008Z,999.37
2017-12-29T03:59:01.108Z,999.34
2017-12-29T03:59:27.218Z,999.32
2017-12-29T03:59:53.319Z,999.25
2017-12-29T04:00:19.426Z,999.29
2017-12-29T04:00:45.525Z,999.27
2017-12-29T04:01:11.624Z,999.28
2017-12-29T04:01:37.728Z,999.27
2017-12-29T04:02:03.826Z,999.27
2017-12-29T04:02:29.924Z,999.21
2017-12-29T04:02:56.019Z,999.24
2017-12-29T04:03:22.122Z,999.27
2017-12-29T04:03:48.222Z,999.29
2017-12-29T04:04:14.323Z,999.24
2017-12-29T04:04:40.439Z,999.36
2017-12-29T04:05:06.525Z,999.37
2017-12-29T04:05:32.628Z,999.28
2017-12-29T04:05:58.742Z,999.3
2017-12-29T04:06:24.837Z,999.31
2017-12-29T04:06:50.937Z,999.33
2017-12-29T04:07:17.043Z,999.34
2017-12-29T04:07:43.139Z,999.35
2017-12-29T04:08:09.234Z,999.3
2017-12-29T04:08:35.335Z,999.35
2017-12-29T04:09:01.431Z,999.3
2017-12-29T04:09:27.533Z,999.38
2017-12-29T04:09:53.630Z,999.34
2017-12-29T04:10:19.749Z,999.34
2017-12-29T04:10:45.846Z,999.36
2017-12-29T04:11:11.949Z,999.37
2017-12-29T04:11:38.051Z,999.32
2017-12-29T04:12:04.147Z,999.26
2017-12-29T04:12:30.247Z,999.35
2017-12-29T04:12:56.348Z,999.32
2017-12-29T04:13:22.467Z,999.34
2017-12-29T04:13:48.562Z,999.37
2017-12-29T04:14:14.659Z,999.38
2017-12-29T04:14:40.764Z,999.27
2017-12-29T04:15:06.864Z,999.26
2017-12-29T04:15:32.959Z,999.29
2017-12-29T04:15:59.065Z,999.33
2017-12-29T04:16:25.159Z,999.29
2017-12-29T04:16:51.264Z,999.31
2017-12-29T04:17:17.360Z,999.24
2017-12-29T04:17:43.463Z,999.26
2017-12-29T04:18:09.558Z,999.3
2017-12-29T04:18:35.655Z,999.23
2017-12-29T04:19:01.755Z,999.28
2017-12-29T04:19:27.851Z,999.24
2017-12-29T04:19:53.955Z,999.34
2017-12-29T04:20:20.048Z,999.35
2017-12-29T04:20:46.148Z,999.3
2017-12-29T04:21:12.252Z,999.33
2017-12-29T04:21:38.345Z,999.35
2017-12-29T04:22:04.445Z,999.31
2017-12-29T04:22:30.544Z,999.36
2017-12-29T04:22:56.638Z,999.37
2017-12-29T04:23:22.744Z,999.39
2017-12-29T04:23:48.850Z,999.41
2017-12-29T04:24:14.946Z,999.44
2017-12-29T04:24:41.051Z,999.43
2017-12-29T04:25:07.146Z,999.42
2017-12-29T04:25:33.251Z,999.43
2017-12-29T04:25:59.360Z,999.43
2017-12-29T04:26:25.471Z,999.41
2017-12-29T04:26:51.567Z,999.43
2017-12-29T04:27:17.661Z,999.42
2017-12-29T04:27:43.761Z,999.49
2017-12-29T04:28:09.858Z,999.41
2017-12-29T04:28:35.961Z,999.42
2017-12-29T04:29:02.064Z,999.38
2017-12-29T04:29:28.164Z,999.42
2017-12-29T04:29:54.270Z,999.35
2017-12-29T04:30:20.371Z,999.39
2017-12-29T04:30:46.469Z,999.47
2017-12-29T04:31:12.585Z,999.39
2017-12-29T04:31:38.684Z,999.37
2017-12-29T04:32:04.787Z,999.41
2017-12-29T04:32:30.888Z,999.4
2017-12-29T04:32:56.996Z,999.39
2017-12-29T04:33:23.086Z,999.37
2017-12-29T04:33:49.184Z,999.36
2017-12-29T04:34:15.281Z,999.41
2017-12-29T04:34:41.383Z,999.36
2017-12-29T04:35:07.481Z,999.33
2017-12-29T04:35:33.583Z,999.35
2017-12-29T04:35:59.685Z,999.36
2017-12-29T04:36:25.787Z,999.34
2017-12-29T04:36:51.901Z,999.37
2017-12-29T04:37:17.995Z,999.38
2017-12-29T04:37:44.098Z,999.37
2017-12-29T04:38:10.194Z,999.43
2017-12-29T04:38:36.292Z,999.38
2017-12-29T04:39:02.398Z,999.36
2017-12-29T04:39:28.504Z,999.39
2017-12-29T04:39:54.596Z,999.4
2017-12-29T04:40:20.693Z,999.4
2017-12-29T04:40:46.797Z,999.4
2017-12-29T04:41:12.892Z,999.38
2017-12-29T04:41:39.000Z,999.42
2017-12-29T04:42:05.097Z,999.37
2017-12-29T04:42:31.202Z,999.41
2017-12-29T04:42:57.303Z,999.4
2017-12-29T04:43:23.397Z,999.37
2017-12-29T04:43:49.499Z,999.42
2017-12-29T04:44:15.600Z,999.38
2017-12-29T04:44:41.698Z,999.37
2017-12-29T04:45:07.798Z,999.39
2017-12-29T04:45:33.905Z,999.36
2017-12-29T04:45:59.998Z,999.35
2017-12-29T04:46:26.108Z,999.37
2017-12-29T04:46:52.195Z,999.39
2017-12-29T04:47:18.291Z,999.35
2017-12-29T04:47:44.401Z,999.43
2017-12-29T04:48:10.501Z,999.4
2017-12-29T04:48:36.609Z,999.43
2017-12-29T04:49:02.698Z,999.39
2017-12-29T04:49:28.806Z,999.4
2017-12-29T04:49:54.908Z,999.43
2017-12-29T04:50:21.004Z,999.41
2017-12-29T04:50:47.105Z,999.46
2017-12-29T04:51:13.200Z,999.41
2017-12-29T04:51:39.309Z,999.48
2017-12-29T04:52:05.404Z,999.43
2017-12-29T04:52:31.506Z,999.45
2017-12-29T04:52:57.601Z,999.46
2017-12-29T04:53:23.703Z,999.47
2017-12-29T04:53:49.798Z,999.49
2017-12-29T04:54:15.915Z,999.51
2017-12-29T04:54:42.020Z,999.5
2017-12-29T04:55:08.122Z,999.55
2017-12-29T04:55:34.223Z,999.53
2017-12-29T04:56:00.330Z,999.54
2017-12-29T04:56:26.420Z,999.52
2017-12-29T04:56:52.524Z,999.59
2017-12-29T04:57:18.635Z,999.55
2017-12-29T04:57:44.734Z,999.58
2017-12-29T04:58:10.839Z,999.57
2017-12-29T04:58:36.939Z,999.58
2017-12-29T04:59:03.038Z,999.6
2017-12-29T04:59:29.150Z,999.57
2017-12-29T04:59:55.255Z,999.62
2017-12-29T05:00:21.351Z,999.6
2017-12-29T05:00:47.449Z,999.58
2017-12-29T05:01:13.552Z,999.6
2017-12-29T05:01:39.646Z,999.65
2017-12-29T05:02:05.752Z,999.63
2017-12-29T05:02:31.846Z,999.63
2017-12-29T05:02:57.964Z,999.61
2017-12-29T05:03:24.067Z,999.6
2017-12-29T05:03:50.160Z,999.64
2017-12-29T05:04:16.261Z,999.61
2017-12-29T05:04:42.363Z,999.62
2017-12-29T05:05:08.465Z,999.61
2017-12-29T05:05:34.559Z,999.6
2017-12-29T05:06:00.656Z,999.59
2017-12-29T05:06:26.756Z,999.6
2017-12-29T05:06:52.852Z,999.59
2017-12-29T05:07:18.958Z,999.63
2017-12-29T05:07:45.061Z,999.64
2017-12-29T05:08:11.153Z,999.66
2017-12-29T05:08:37.255Z,999.63
2017-12-29T05:09:03.359Z,999.65
2017-12-29T05:09:29.452Z,999.67
2017-12-29T05:09:55.546Z,999.7
2017-12-29T05:10:21.655Z,999.67
2017-12-29T05:10:47.756Z,999.66
2017-12-29T05:11:13.848Z,999.69
2017-12-29T05:11:39.946Z,999.69
2017-12-29T05:12:06.046Z,999.65
2017-12-29T05:12:32.147Z,999.63
2017-12-29T05:12:58.247Z,999.62
2017-12-29T05:13:24.344Z,999.65
2017-12-29T05:13:50.449Z,999.64
2017-12-29T05:14:16.543Z,999.64
2017-12-29T05:14:42.648Z,999.65
2017-12-29T05:15:08.752Z,999.66
2017-12-29T05:15:34.843Z,999.64
2017-12-29T05:16:00.938Z,999.65
2017-12-29T05:16:27.042Z,999.67
2017-12-29T05:16:53.144Z,999.65
2017-12-29T05:17:19.249Z,999.63
2017-12-29T05:17:45.348Z,999.72
2017-12-29T05:18:11.444Z,999.65
2017-12-29T05:18:37.546Z,999.68
2017-12-29T05:19:03.645Z,999.73
2017-12-29T05:19:29.741Z,999.74
2017-12-29T05:19:55.863Z,999.7
2017-12-29T05:20:21.955Z,999.7
2017-12-29T05:20:48.067Z,999.71
2017-12-29T05:21:14.182Z,999.71
2017-12-29T05:21:40.282Z,999.73
2017-12-29T05:22:06.378Z,999.77
2017-12-29T05:22:32.478Z,999.74
2017-12-29T05:22:58.580Z,999.76
2017-12-29T05:23:24.695Z,999.76
2017-12-29T05:23:50.800Z,999.74
2017-12-29T05:24:16.915Z,999.76
2017-12-29T05:24:43.011Z,999.75
2017-12-29T05:25:09.111Z,999.71
2017-12-29T05:25:35.214Z,999.75
2017-12-29T05:26:01.315Z,999.79
2017-12-29T05:26:27.411Z,999.79
2017-12-29T05:26:53.507Z,999.75